sensor_id;sensor_type;location;lat;lon;timestamp;temperature;humidity
31677;DHT22;18385;51.572;6.578;2024-03-23T00:54:16;10.30;70.70
31677;DHT22;18385;51.572;6.578;2024-03-23T00:56:42;10.30;70.80
31677;DHT22;18385;51.572;6.578;2024-03-23T00:59:07;10.30;70.80
31677;DHT22;18385;51.572;6.578;2024-03-23T01:01:33;10.30;71.00
31677;DHT22;18385;51.572;6.578;2024-03-23T01:03:59;10.40;71.00
31677;DHT22;18385;51.572;6.578;2024-03-23T01:06:24;10.40;71.10
31677;DHT22;18385;51.572;6.578;2024-03-23T01:08:50;10.50;71.80
31677;DHT22;18385;51.572;6.578;2024-03-23T01:11:16;10.50;70.90
31677;DHT22;18385;51.572;6.578;2024-03-23T01:13:41;10.60;70.90
31677;DHT22;18385;51.572;6.578;2024-03-23T01:16:07;10.60;70.70
31677;DHT22;18385;51.572;6.578;2024-03-23T01:18:33;10.70;70.70
31677;DHT22;18385;51.572;6.578;2024-03-23T01:20:58;10.70;70.70
31677;DHT22;18385;51.572;6.578;2024-03-23T01:23:24;10.80;70.70
31677;DHT22;18385;51.572;6.578;2024-03-23T01:25:53;10.90;70.40
31677;DHT22;18385;51.572;6.578;2024-03-23T01:28:20;10.90;70.20
31677;DHT22;18385;51.572;6.578;2024-03-23T01:30:45;10.80;70.10
31677;DHT22;18385;51.572;6.578;2024-03-23T01:33:11;10.80;70.00
31677;DHT22;18385;51.572;6.578;2024-03-23T01:35:38;10.70;70.10
31677;DHT22;18385;51.572;6.578;2024-03-23T01:38:04;10.70;70.30
31677;DHT22;18385;51.572;6.578;2024-03-23T01:40:29;10.70;70.30
31677;DHT22;18385;51.572;6.578;2024-03-23T01:42:57;10.80;70.30
31677;DHT22;18385;51.572;6.578;2024-03-23T01:45:24;10.80;70.30
31677;DHT22;18385;51.572;6.578;2024-03-23T01:47:52;10.80;70.10
31677;DHT22;18385;51.572;6.578;2024-03-23T01:50:21;10.80;70.20
31677;DHT22;18385;51.572;6.578;2024-03-23T01:52:48;10.80;70.00
31677;DHT22;18385;51.572;6.578;2024-03-23T01:55:14;10.80;70.00
31677;DHT22;18385;51.572;6.578;2024-03-23T01:57:40;10.80;70.00
31677;DHT22;18385;51.572;6.578;2024-03-23T02:00:06;10.80;70.00
31677;DHT22;18385;51.572;6.578;2024-03-23T02:02:42;10.80;70.00
31677;DHT22;18385;51.572;6.578;2024-03-23T02:05:08;10.80;70.00
31677;DHT22;18385;51.572;6.578;2024-03-23T02:07:34;10.80;69.90
31677;DHT22;18385;51.572;6.578;2024-03-23T02:10:01;10.80;69.90
31677;DHT22;18385;51.572;6.578;2024-03-23T02:12:26;10.80;69.90
31677;DHT22;18385;51.572;6.578;2024-03-23T02:14:52;10.80;69.90
31677;DHT22;18385;51.572;6.578;2024-03-23T02:17:17;10.80;69.90
31677;DHT22;18385;51.572;6.578;2024-03-23T02:19:43;10.80;69.90
31677;DHT22;18385;51.572;6.578;2024-03-23T02:22:09;10.80;69.80
31677;DHT22;18385;51.572;6.578;2024-03-23T02:24:37;10.80;69.70
31677;DHT22;18385;51.572;6.578;2024-03-23T02:27:03;10.70;69.70
31677;DHT22;18385;51.572;6.578;2024-03-23T02:29:28;10.70;69.80
31677;DHT22;18385;51.572;6.578;2024-03-23T02:31:54;10.60;69.80
31677;DHT22;18385;51.572;6.578;2024-03-23T02:34:20;10.60;69.90
31677;DHT22;18385;51.572;6.578;2024-03-23T02:36:45;10.70;69.90
31677;DHT22;18385;51.572;6.578;2024-03-23T02:39:11;10.70;69.80
31677;DHT22;18385;51.572;6.578;2024-03-23T02:41:37;10.60;69.70
31677;DHT22;18385;51.572;6.578;2024-03-23T02:44:02;10.60;69.80
31677;DHT22;18385;51.572;6.578;2024-03-23T02:46:28;10.50;69.80
31677;DHT22;18385;51.572;6.578;2024-03-23T02:48:54;10.50;69.90
31677;DHT22;18385;51.572;6.578;2024-03-23T02:51:19;10.50;70.00
31677;DHT22;18385;51.572;6.578;2024-03-23T02:53:45;10.50;69.90
31677;DHT22;18385;51.572;6.578;2024-03-23T02:56:10;10.50;69.90
31677;DHT22;18385;51.572;6.578;2024-03-23T02:58:41;10.50;70.00
31677;DHT22;18385;51.572;6.578;2024-03-23T03:01:07;10.50;69.90
31677;DHT22;18385;51.572;6.578;2024-03-23T03:03:32;10.50;70.00
31677;DHT22;18385;51.572;6.578;2024-03-23T03:05:58;10.50;69.80
31677;DHT22;18385;51.572;6.578;2024-03-23T03:08:24;10.50;69.90
31677;DHT22;18385;51.572;6.578;2024-03-23T03:10:49;10.40;69.90
31677;DHT22;18385;51.572;6.578;2024-03-23T03:13:15;10.40;69.90
31677;DHT22;18385;51.572;6.578;2024-03-23T03:15:42;10.40;69.90
31677;DHT22;18385;51.572;6.578;2024-03-23T03:18:08;10.40;70.00
31677;DHT22;18385;51.572;6.578;2024-03-23T03:20:34;10.40;69.90
31677;DHT22;18385;51.572;6.578;2024-03-23T03:23:00;10.40;69.90
31677;DHT22;18385;51.572;6.578;2024-03-23T03:25:25;10.40;70.00
31677;DHT22;18385;51.572;6.578;2024-03-23T03:27:51;10.40;69.90
31677;DHT22;18385;51.572;6.578;2024-03-23T03:30:17;10.50;70.00
31677;DHT22;18385;51.572;6.578;2024-03-23T03:32:42;10.40;69.80
31677;DHT22;18385;51.572;6.578;2024-03-23T03:35:08;10.40;69.80
31677;DHT22;18385;51.572;6.578;2024-03-23T03:37:34;10.40;69.90
31677;DHT22;18385;51.572;6.578;2024-03-23T03:39:59;10.40;70.00
31677;DHT22;18385;51.572;6.578;2024-03-23T03:42:25;10.40;70.00
31677;DHT22;18385;51.572;6.578;2024-03-23T03:44:51;10.40;69.90
31677;DHT22;18385;51.572;6.578;2024-03-23T03:47:18;10.50;69.90
31677;DHT22;18385;51.572;6.578;2024-03-23T03:49:43;10.50;69.80
31677;DHT22;18385;51.572;6.578;2024-03-23T03:52:09;10.50;70.00
31677;DHT22;18385;51.572;6.578;2024-03-23T03:54:35;10.50;69.80
31677;DHT22;18385;51.572;6.578;2024-03-23T03:57:00;10.50;69.80
31677;DHT22;18385;51.572;6.578;2024-03-23T03:59:26;10.50;69.80
31677;DHT22;18385;51.572;6.578;2024-03-23T04:01:52;10.50;69.80
31677;DHT22;18385;51.572;6.578;2024-03-23T04:04:17;10.50;69.70
31677;DHT22;18385;51.572;6.578;2024-03-23T04:06:43;10.40;69.70
31677;DHT22;18385;51.572;6.578;2024-03-23T04:09:09;10.40;69.80
31677;DHT22;18385;51.572;6.578;2024-03-23T04:11:35;10.40;69.90
31677;DHT22;18385;51.572;6.578;2024-03-23T04:14:01;10.40;69.90
31677;DHT22;18385;51.572;6.578;2024-03-23T04:16:28;10.40;69.90
31677;DHT22;18385;51.572;6.578;2024-03-23T04:18:54;10.40;69.90
31677;DHT22;18385;51.572;6.578;2024-03-23T04:21:20;10.40;69.90
31677;DHT22;18385;51.572;6.578;2024-03-23T04:23:46;10.40;69.90
31677;DHT22;18385;51.572;6.578;2024-03-23T04:26:11;10.40;69.90
31677;DHT22;18385;51.572;6.578;2024-03-23T04:28:37;10.40;69.90
31677;DHT22;18385;51.572;6.578;2024-03-23T04:31:05;10.40;69.90
31677;DHT22;18385;51.572;6.578;2024-03-23T04:33:31;10.40;70.00
31677;DHT22;18385;51.572;6.578;2024-03-23T04:35:57;10.40;69.90
31677;DHT22;18385;51.572;6.578;2024-03-23T04:38:22;10.50;70.10
31677;DHT22;18385;51.572;6.578;2024-03-23T04:40:58;10.40;70.00
31677;DHT22;18385;51.572;6.578;2024-03-23T04:43:26;10.40;70.00
31677;DHT22;18385;51.572;6.578;2024-03-23T04:45:51;10.40;70.00
31677;DHT22;18385;51.572;6.578;2024-03-23T04:48:20;10.40;70.10
31677;DHT22;18385;51.572;6.578;2024-03-23T04:50:48;10.40;70.10
31677;DHT22;18385;51.572;6.578;2024-03-23T04:53:14;10.40;70.10
31677;DHT22;18385;51.572;6.578;2024-03-23T04:55:41;10.40;70.20
31677;DHT22;18385;51.572;6.578;2024-03-23T04:58:07;10.40;70.10
31677;DHT22;18385;51.572;6.578;2024-03-23T05:00:34;10.40;70.10
31677;DHT22;18385;51.572;6.578;2024-03-23T05:02:59;10.40;70.10
31677;DHT22;18385;51.572;6.578;2024-03-23T05:05:25;10.40;70.10
31677;DHT22;18385;51.572;6.578;2024-03-23T05:07:50;10.40;70.10
31677;DHT22;18385;51.572;6.578;2024-03-23T05:10:16;10.40;70.10
31677;DHT22;18385;51.572;6.578;2024-03-23T05:12:42;10.40;70.00
31677;DHT22;18385;51.572;6.578;2024-03-23T05:15:07;10.30;70.00
31677;DHT22;18385;51.572;6.578;2024-03-23T05:17:34;10.30;70.10
31677;DHT22;18385;51.572;6.578;2024-03-23T05:19:59;10.30;70.20
31677;DHT22;18385;51.572;6.578;2024-03-23T05:22:25;10.30;70.20
31677;DHT22;18385;51.572;6.578;2024-03-23T05:24:53;10.30;70.30
31677;DHT22;18385;51.572;6.578;2024-03-23T05:27:18;10.20;70.20
31677;DHT22;18385;51.572;6.578;2024-03-23T05:29:44;10.20;70.20
31677;DHT22;18385;51.572;6.578;2024-03-23T05:32:10;10.10;70.80
31677;DHT22;18385;51.572;6.578;2024-03-23T05:34:36;10.00;70.20
31677;DHT22;18385;51.572;6.578;2024-03-23T05:37:01;9.90;70.30
31677;DHT22;18385;51.572;6.578;2024-03-23T05:39:27;9.80;70.30
31677;DHT22;18385;51.572;6.578;2024-03-23T05:41:52;9.70;70.60
31677;DHT22;18385;51.572;6.578;2024-03-23T05:44:18;9.60;70.70
31677;DHT22;18385;51.572;6.578;2024-03-23T05:46:44;9.50;70.70
31677;DHT22;18385;51.572;6.578;2024-03-23T05:49:15;9.40;70.80
31677;DHT22;18385;51.572;6.578;2024-03-23T05:51:40;9.40;71.00
31677;DHT22;18385;51.572;6.578;2024-03-23T05:54:06;9.30;71.00
31677;DHT22;18385;51.572;6.578;2024-03-23T05:56:32;9.30;71.00
31677;DHT22;18385;51.572;6.578;2024-03-23T05:58:57;9.30;71.10
31677;DHT22;18385;51.572;6.578;2024-03-23T06:01:23;9.30;71.00
31677;DHT22;18385;51.572;6.578;2024-03-23T06:03:49;9.30;71.00
31677;DHT22;18385;51.572;6.578;2024-03-23T06:06:14;9.30;71.10
31677;DHT22;18385;51.572;6.578;2024-03-23T06:08:40;9.20;71.20
31677;DHT22;18385;51.572;6.578;2024-03-23T06:11:06;9.20;72.00
31677;DHT22;18385;51.572;6.578;2024-03-23T06:13:32;9.30;71.40
31677;DHT22;18385;51.572;6.578;2024-03-23T06:15:59;9.30;71.30
31677;DHT22;18385;51.572;6.578;2024-03-23T06:18:25;9.30;71.30
31677;DHT22;18385;51.572;6.578;2024-03-23T06:20:51;9.40;71.40
31677;DHT22;18385;51.572;6.578;2024-03-23T06:23:17;9.40;71.20
31677;DHT22;18385;51.572;6.578;2024-03-23T06:25:45;9.40;71.20
31677;DHT22;18385;51.572;6.578;2024-03-23T06:28:11;9.40;71.20
31677;DHT22;18385;51.572;6.578;2024-03-23T06:30:37;9.40;71.20
31677;DHT22;18385;51.572;6.578;2024-03-23T06:33:02;9.50;71.30
31677;DHT22;18385;51.572;6.578;2024-03-23T06:35:28;9.50;71.20
31677;DHT22;18385;51.572;6.578;2024-03-23T06:37:54;9.50;71.20
31677;DHT22;18385;51.572;6.578;2024-03-23T06:40:19;9.50;71.00
31677;DHT22;18385;51.572;6.578;2024-03-23T06:42:45;9.60;71.10
31677;DHT22;18385;51.572;6.578;2024-03-23T06:45:11;9.60;71.10
31677;DHT22;18385;51.572;6.578;2024-03-23T06:47:37;9.60;71.10
31677;DHT22;18385;51.572;6.578;2024-03-23T06:50:03;9.70;71.90
31677;DHT22;18385;51.572;6.578;2024-03-23T06:52:30;9.70;71.10
31677;DHT22;18385;51.572;6.578;2024-03-23T06:54:56;9.80;71.20
31677;DHT22;18385;51.572;6.578;2024-03-23T06:57:22;9.80;71.10
31677;DHT22;18385;51.572;6.578;2024-03-23T06:59:48;9.80;71.10
31677;DHT22;18385;51.572;6.578;2024-03-23T07:02:13;9.90;71.10
31677;DHT22;18385;51.572;6.578;2024-03-23T07:04:39;9.90;71.00
31677;DHT22;18385;51.572;6.578;2024-03-23T07:07:05;10.00;71.00
31677;DHT22;18385;51.572;6.578;2024-03-23T07:09:31;10.10;71.00
31677;DHT22;18385;51.572;6.578;2024-03-23T07:11:57;10.10;70.90
31677;DHT22;18385;51.572;6.578;2024-03-23T07:14:23;10.20;71.00
31677;DHT22;18385;51.572;6.578;2024-03-23T07:16:49;10.30;70.90
31677;DHT22;18385;51.572;6.578;2024-03-23T07:19:16;10.30;70.90
31677;DHT22;18385;51.572;6.578;2024-03-23T07:21:42;10.40;70.90
31677;DHT22;18385;51.572;6.578;2024-03-23T07:24:08;10.40;70.80
31677;DHT22;18385;51.572;6.578;2024-03-23T07:26:34;10.50;70.80
31677;DHT22;18385;51.572;6.578;2024-03-23T07:29:00;10.60;70.70
31677;DHT22;18385;51.572;6.578;2024-03-23T07:31:25;10.70;70.60
31677;DHT22;18385;51.572;6.578;2024-03-23T07:33:51;10.70;70.50
31677;DHT22;18385;51.572;6.578;2024-03-23T07:36:16;10.80;70.40
31677;DHT22;18385;51.572;6.578;2024-03-23T07:38:43;10.80;70.20
31677;DHT22;18385;51.572;6.578;2024-03-23T07:41:16;10.80;70.20
31677;DHT22;18385;51.572;6.578;2024-03-23T07:43:46;10.80;70.30
31677;DHT22;18385;51.572;6.578;2024-03-23T07:46:12;10.90;70.30
31677;DHT22;18385;51.572;6.578;2024-03-23T07:48:39;10.90;70.20
31677;DHT22;18385;51.572;6.578;2024-03-23T07:51:07;11.00;70.20
31677;DHT22;18385;51.572;6.578;2024-03-23T07:53:34;11.10;70.10
31677;DHT22;18385;51.572;6.578;2024-03-23T07:56:02;11.10;70.10
31677;DHT22;18385;51.572;6.578;2024-03-23T07:58:28;11.20;70.10
31677;DHT22;18385;51.572;6.578;2024-03-23T08:00:55;11.20;70.00
31677;DHT22;18385;51.572;6.578;2024-03-23T08:03:21;11.30;69.90
31677;DHT22;18385;51.572;6.578;2024-03-23T08:05:47;11.40;70.10
31677;DHT22;18385;51.572;6.578;2024-03-23T08:08:13;11.60;70.00
31677;DHT22;18385;51.572;6.578;2024-03-23T08:10:52;11.80;70.00
31677;DHT22;18385;51.572;6.578;2024-03-23T08:13:18;12.00;69.60
31677;DHT22;18385;51.572;6.578;2024-03-23T08:15:44;12.00;69.10
31677;DHT22;18385;51.572;6.578;2024-03-23T08:18:11;12.00;68.60
31677;DHT22;18385;51.572;6.578;2024-03-23T08:20:38;12.00;69.10
31677;DHT22;18385;51.572;6.578;2024-03-23T08:23:05;12.10;69.10
31677;DHT22;18385;51.572;6.578;2024-03-23T08:25:31;12.10;68.70
31677;DHT22;18385;51.572;6.578;2024-03-23T08:27:58;12.30;69.00
31677;DHT22;18385;51.572;6.578;2024-03-23T08:30:23;12.40;68.50
31677;DHT22;18385;51.572;6.578;2024-03-23T08:32:49;12.50;68.30
31677;DHT22;18385;51.572;6.578;2024-03-23T08:35:15;12.60;68.30
31677;DHT22;18385;51.572;6.578;2024-03-23T08:37:40;12.70;68.10
31677;DHT22;18385;51.572;6.578;2024-03-23T08:40:06;12.70;67.20
31677;DHT22;18385;51.572;6.578;2024-03-23T08:42:34;12.60;67.20
31677;DHT22;18385;51.572;6.578;2024-03-23T08:45:00;12.50;67.30
31677;DHT22;18385;51.572;6.578;2024-03-23T08:47:25;12.40;67.20
31677;DHT22;18385;51.572;6.578;2024-03-23T08:49:51;12.40;67.40
31677;DHT22;18385;51.572;6.578;2024-03-23T08:52:17;12.40;67.30
31677;DHT22;18385;51.572;6.578;2024-03-23T08:54:42;12.40;67.00
31677;DHT22;18385;51.572;6.578;2024-03-23T08:57:08;12.40;67.50
31677;DHT22;18385;51.572;6.578;2024-03-23T08:59:34;12.70;68.20
31677;DHT22;18385;51.572;6.578;2024-03-23T09:02:00;12.90;67.20
31677;DHT22;18385;51.572;6.578;2024-03-23T09:04:26;13.10;66.50
31677;DHT22;18385;51.572;6.578;2024-03-23T09:06:51;12.80;65.80
31677;DHT22;18385;51.572;6.578;2024-03-23T09:09:20;12.60;65.90
31677;DHT22;18385;51.572;6.578;2024-03-23T09:11:46;12.40;66.00
31677;DHT22;18385;51.572;6.578;2024-03-23T09:14:11;12.20;66.00
31677;DHT22;18385;51.572;6.578;2024-03-23T09:16:37;12.20;66.80
31677;DHT22;18385;51.572;6.578;2024-03-23T09:19:03;12.30;67.00
31677;DHT22;18385;51.572;6.578;2024-03-23T09:21:29;12.40;67.00
31677;DHT22;18385;51.572;6.578;2024-03-23T09:23:54;12.70;67.00
31677;DHT22;18385;51.572;6.578;2024-03-23T09:26:20;13.00;66.90
31677;DHT22;18385;51.572;6.578;2024-03-23T09:28:48;13.30;66.30
31677;DHT22;18385;51.572;6.578;2024-03-23T09:31:14;13.30;65.00
31677;DHT22;18385;51.572;6.578;2024-03-23T09:33:41;13.30;65.00
31677;DHT22;18385;51.572;6.578;2024-03-23T09:36:07;13.20;64.90
31677;DHT22;18385;51.572;6.578;2024-03-23T09:38:34;13.40;65.60
31677;DHT22;18385;51.572;6.578;2024-03-23T09:41:00;13.60;65.20
31677;DHT22;18385;51.572;6.578;2024-03-23T09:43:26;13.60;64.40
31677;DHT22;18385;51.572;6.578;2024-03-23T09:45:53;13.50;64.00
31677;DHT22;18385;51.572;6.578;2024-03-23T09:48:19;13.20;63.10
31677;DHT22;18385;51.572;6.578;2024-03-23T09:50:45;12.80;63.00
31677;DHT22;18385;51.572;6.578;2024-03-23T09:53:12;12.60;63.60
31677;DHT22;18385;51.572;6.578;2024-03-23T09:55:43;12.40;63.70
31677;DHT22;18385;51.572;6.578;2024-03-23T09:58:13;12.40;65.00
31677;DHT22;18385;51.572;6.578;2024-03-23T10:00:39;12.50;64.30
31677;DHT22;18385;51.572;6.578;2024-03-23T10:03:05;12.70;64.50
31677;DHT22;18385;51.572;6.578;2024-03-23T10:05:32;12.90;64.40
31677;DHT22;18385;51.572;6.578;2024-03-23T10:08:02;13.40;65.00
31677;DHT22;18385;51.572;6.578;2024-03-23T10:10:43;14.00;64.70
31677;DHT22;18385;51.572;6.578;2024-03-23T10:13:08;14.60;63.70
31677;DHT22;18385;51.572;6.578;2024-03-23T10:15:35;14.50;61.50
31677;DHT22;18385;51.572;6.578;2024-03-23T10:18:20;13.80;59.50
31677;DHT22;18385;51.572;6.578;2024-03-23T10:23:34;11.90;61.40
31677;DHT22;18385;51.572;6.578;2024-03-23T10:31:17;11.30;64.40
31677;DHT22;18385;51.572;6.578;2024-03-23T10:33:47;11.30;64.40
31677;DHT22;18385;51.572;6.578;2024-03-23T10:36:13;11.50;64.50
31677;DHT22;18385;51.572;6.578;2024-03-23T10:38:43;11.60;64.20
31677;DHT22;18385;51.572;6.578;2024-03-23T10:41:10;11.70;64.10
31677;DHT22;18385;51.572;6.578;2024-03-23T10:43:37;11.90;64.10
31677;DHT22;18385;51.572;6.578;2024-03-23T10:46:03;12.10;64.10
31677;DHT22;18385;51.572;6.578;2024-03-23T10:48:29;12.20;63.60
31677;DHT22;18385;51.572;6.578;2024-03-23T10:50:55;12.20;62.90
31677;DHT22;18385;51.572;6.578;2024-03-23T10:53:28;12.10;62.60
31677;DHT22;18385;51.572;6.578;2024-03-23T10:55:55;12.00;62.60
31677;DHT22;18385;51.572;6.578;2024-03-23T10:58:46;11.90;62.90
31677;DHT22;18385;51.572;6.578;2024-03-23T11:01:12;11.90;63.30
31677;DHT22;18385;51.572;6.578;2024-03-23T11:03:39;12.00;63.30
31677;DHT22;18385;51.572;6.578;2024-03-23T11:06:06;12.00;63.30
31677;DHT22;18385;51.572;6.578;2024-03-23T11:08:38;12.10;63.40
31677;DHT22;18385;51.572;6.578;2024-03-23T11:11:22;12.40;63.60
31677;DHT22;18385;51.572;6.578;2024-03-23T11:13:51;12.90;63.80
31677;DHT22;18385;51.572;6.578;2024-03-23T11:16:24;13.30;62.90
31677;DHT22;18385;51.572;6.578;2024-03-23T11:18:53;13.60;62.60
31677;DHT22;18385;51.572;6.578;2024-03-23T11:21:51;13.90;62.40
31677;DHT22;18385;51.572;6.578;2024-03-23T11:24:17;14.00;61.10
31677;DHT22;18385;51.572;6.578;2024-03-23T11:26:44;14.00;61.00
31677;DHT22;18385;51.572;6.578;2024-03-23T11:29:14;14.00;61.20
31677;DHT22;18385;51.572;6.578;2024-03-23T11:31:49;14.30;61.80
31677;DHT22;18385;51.572;6.578;2024-03-23T11:34:19;14.80;61.20
31677;DHT22;18385;51.572;6.578;2024-03-23T11:36:45;14.90;60.40
31677;DHT22;18385;51.572;6.578;2024-03-23T11:39:15;14.70;59.10
31677;DHT22;18385;51.572;6.578;2024-03-23T11:44:18;13.50;58.40
31677;DHT22;18385;51.572;6.578;2024-03-23T11:46:44;12.70;59.00
31677;DHT22;18385;51.572;6.578;2024-03-23T11:51:48;11.70;61.40
31677;DHT22;18385;51.572;6.578;2024-03-23T11:54:13;11.60;62.30
31677;DHT22;18385;51.572;6.578;2024-03-23T11:56:39;11.60;62.40
31677;DHT22;18385;51.572;6.578;2024-03-23T11:59:06;11.60;63.00
31677;DHT22;18385;51.572;6.578;2024-03-23T12:01:32;11.90;63.20
31677;DHT22;18385;51.572;6.578;2024-03-23T12:03:58;12.10;63.00
31677;DHT22;18385;51.572;6.578;2024-03-23T12:06:23;12.30;62.40
31677;DHT22;18385;51.572;6.578;2024-03-23T12:08:49;12.30;61.10
31677;DHT22;18385;51.572;6.578;2024-03-23T12:11:18;12.40;61.00
31677;DHT22;18385;51.572;6.578;2024-03-23T12:13:45;12.60;60.70
31677;DHT22;18385;51.572;6.578;2024-03-23T12:16:20;12.60;60.50
31677;DHT22;18385;51.572;6.578;2024-03-23T12:18:48;12.80;60.00
31677;DHT22;18385;51.572;6.578;2024-03-23T12:21:15;12.90;59.90
31677;DHT22;18385;51.572;6.578;2024-03-23T12:23:41;13.20;60.00
31677;DHT22;18385;51.572;6.578;2024-03-23T12:26:14;13.50;59.60
31677;DHT22;18385;51.572;6.578;2024-03-23T12:28:39;13.80;59.60
31677;DHT22;18385;51.572;6.578;2024-03-23T12:31:06;13.90;58.90
31677;DHT22;18385;51.572;6.578;2024-03-23T12:33:31;13.80;57.90
31677;DHT22;18385;51.572;6.578;2024-03-23T12:35:57;13.40;57.10
31677;DHT22;18385;51.572;6.578;2024-03-23T12:38:24;12.40;57.10
31677;DHT22;18385;51.572;6.578;2024-03-23T12:40:50;11.80;58.10
31677;DHT22;18385;51.572;6.578;2024-03-23T12:43:17;11.50;59.00
31677;DHT22;18385;51.572;6.578;2024-03-23T12:45:46;11.40;59.70
31677;DHT22;18385;51.572;6.578;2024-03-23T12:48:13;11.50;59.80
31677;DHT22;18385;51.572;6.578;2024-03-23T12:50:38;11.60;59.60
31677;DHT22;18385;51.572;6.578;2024-03-23T12:53:04;11.70;59.50
31677;DHT22;18385;51.572;6.578;2024-03-23T12:55:35;11.60;58.70
31677;DHT22;18385;51.572;6.578;2024-03-23T12:58:01;11.30;58.40
31677;DHT22;18385;51.572;6.578;2024-03-23T13:00:27;11.00;58.80
31677;DHT22;18385;51.572;6.578;2024-03-23T13:02:53;10.90;59.40
31677;DHT22;18385;51.572;6.578;2024-03-23T13:05:18;11.00;59.90
31677;DHT22;18385;51.572;6.578;2024-03-23T13:07:44;11.50;60.40
31677;DHT22;18385;51.572;6.578;2024-03-23T13:10:10;12.10;60.50
31677;DHT22;18385;51.572;6.578;2024-03-23T13:12:36;12.60;59.40
31677;DHT22;18385;51.572;6.578;2024-03-23T13:15:02;13.10;59.10
31677;DHT22;18385;51.572;6.578;2024-03-23T13:17:28;13.60;58.90
31677;DHT22;18385;51.572;6.578;2024-03-23T13:19:54;13.80;58.10
31677;DHT22;18385;51.572;6.578;2024-03-23T13:22:21;13.90;58.10
31677;DHT22;18385;51.572;6.578;2024-03-23T13:24:47;13.80;57.90
31677;DHT22;18385;51.572;6.578;2024-03-23T13:27:12;13.90;58.10
31677;DHT22;18385;51.572;6.578;2024-03-23T13:29:38;13.70;57.10
31677;DHT22;18385;51.572;6.578;2024-03-23T13:32:05;13.60;57.90
31677;DHT22;18385;51.572;6.578;2024-03-23T13:34:31;13.70;58.00
31677;DHT22;18385;51.572;6.578;2024-03-23T13:36:57;13.80;58.60
31677;DHT22;18385;51.572;6.578;2024-03-23T13:39:24;14.10;58.60
31677;DHT22;18385;51.572;6.578;2024-03-23T13:41:50;14.60;59.00
31677;DHT22;18385;51.572;6.578;2024-03-23T13:44:16;15.10;59.10
31677;DHT22;18385;51.572;6.578;2024-03-23T13:46:42;15.50;57.90
31677;DHT22;18385;51.572;6.578;2024-03-23T13:51:50;15.80;57.60
31677;DHT22;18385;51.572;6.578;2024-03-23T13:54:15;15.90;56.70
31677;DHT22;18385;51.572;6.578;2024-03-23T13:56:41;16.00;56.40
31677;DHT22;18385;51.572;6.578;2024-03-23T13:59:07;15.80;55.50
31677;DHT22;18385;51.572;6.578;2024-03-23T14:01:32;15.70;56.10
31677;DHT22;18385;51.572;6.578;2024-03-23T14:03:58;15.80;55.80
31677;DHT22;18385;51.572;6.578;2024-03-23T14:06:24;15.30;54.40
31677;DHT22;18385;51.572;6.578;2024-03-23T14:08:49;14.80;54.70
31677;DHT22;18385;51.572;6.578;2024-03-23T14:11:18;14.20;54.20
31677;DHT22;18385;51.572;6.578;2024-03-23T14:13:44;13.50;54.80
31677;DHT22;18385;51.572;6.578;2024-03-23T14:16:10;13.30;55.80
31677;DHT22;18385;51.572;6.578;2024-03-23T14:18:36;13.90;57.70
31677;DHT22;18385;51.572;6.578;2024-03-23T14:21:02;14.30;55.70
31677;DHT22;18385;51.572;6.578;2024-03-23T14:23:30;14.10;55.00
31677;DHT22;18385;51.572;6.578;2024-03-23T14:25:58;14.60;56.60
31677;DHT22;18385;51.572;6.578;2024-03-23T14:28:24;16.10;57.70
31677;DHT22;18385;51.572;6.578;2024-03-23T14:30:50;17.10;54.90
31677;DHT22;18385;51.572;6.578;2024-03-23T14:33:17;17.70;54.10
31677;DHT22;18385;51.572;6.578;2024-03-23T14:35:43;18.30;53.50
31677;DHT22;18385;51.572;6.578;2024-03-23T14:38:09;18.20;51.50
31677;DHT22;18385;51.572;6.578;2024-03-23T14:40:35;17.80;50.50
31677;DHT22;18385;51.572;6.578;2024-03-23T14:43:01;17.50;51.20
31677;DHT22;18385;51.572;6.578;2024-03-23T14:45:28;16.80;50.80
31677;DHT22;18385;51.572;6.578;2024-03-23T14:47:53;17.00;52.50
31677;DHT22;18385;51.572;6.578;2024-03-23T14:50:19;16.70;50.60
31677;DHT22;18385;51.572;6.578;2024-03-23T14:52:47;15.90;50.10
31677;DHT22;18385;51.572;6.578;2024-03-23T14:55:13;15.10;50.70
31677;DHT22;18385;51.572;6.578;2024-03-23T14:57:39;14.50;51.80
31677;DHT22;18385;51.572;6.578;2024-03-23T15:00:08;14.30;52.40
31677;DHT22;18385;51.572;6.578;2024-03-23T15:02:39;15.20;54.40
31677;DHT22;18385;51.572;6.578;2024-03-23T15:05:06;16.70;53.90
31677;DHT22;18385;51.572;6.578;2024-03-23T15:07:36;17.90;52.80
31677;DHT22;18385;51.572;6.578;2024-03-23T15:10:06;19.10;51.70
31677;DHT22;18385;51.572;6.578;2024-03-23T15:12:33;19.20;48.90
31677;DHT22;18385;51.572;6.578;2024-03-23T15:14:59;18.40;47.40
31677;DHT22;18385;51.572;6.578;2024-03-23T15:17:26;17.70;47.90
31677;DHT22;18385;51.572;6.578;2024-03-23T15:19:51;16.80;47.90
31677;DHT22;18385;51.572;6.578;2024-03-23T15:22:20;16.20;49.10
31677;DHT22;18385;51.572;6.578;2024-03-23T15:24:47;17.40;52.40
31677;DHT22;18385;51.572;6.578;2024-03-23T15:27:13;18.70;50.70
31677;DHT22;18385;51.572;6.578;2024-03-23T15:29:38;19.90;49.60
31677;DHT22;18385;51.572;6.578;2024-03-23T15:32:04;19.20;44.80
31677;DHT22;18385;51.572;6.578;2024-03-23T15:34:30;17.90;45.60
31677;DHT22;18385;51.572;6.578;2024-03-23T15:36:56;17.00;46.70
31677;DHT22;18385;51.572;6.578;2024-03-23T15:39:21;17.20;49.10
31677;DHT22;18385;51.572;6.578;2024-03-23T15:41:48;17.50;48.50
31677;DHT22;18385;51.572;6.578;2024-03-23T15:44:14;17.10;47.50
31677;DHT22;18385;51.572;6.578;2024-03-23T15:46:40;17.00;48.90
31677;DHT22;18385;51.572;6.578;2024-03-23T15:49:06;17.50;49.20
31677;DHT22;18385;51.572;6.578;2024-03-23T15:51:32;17.60;47.60
31677;DHT22;18385;51.572;6.578;2024-03-23T15:54:02;17.00;46.70
31677;DHT22;18385;51.572;6.578;2024-03-23T15:56:31;16.10;46.80
31677;DHT22;18385;51.572;6.578;2024-03-23T15:58:57;15.20;47.40
31677;DHT22;18385;51.572;6.578;2024-03-23T16:01:31;14.50;48.10
31677;DHT22;18385;51.572;6.578;2024-03-23T16:03:59;14.10;49.00
31677;DHT22;18385;51.572;6.578;2024-03-23T16:06:25;13.80;49.30
31677;DHT22;18385;51.572;6.578;2024-03-23T16:08:51;13.60;49.60
31677;DHT22;18385;51.572;6.578;2024-03-23T16:11:18;13.50;49.90
31677;DHT22;18385;51.572;6.578;2024-03-23T16:13:44;13.20;49.30
31677;DHT22;18385;51.572;6.578;2024-03-23T16:16:09;12.60;49.00
31677;DHT22;18385;51.572;6.578;2024-03-23T16:18:36;11.70;49.40
31677;DHT22;18385;51.572;6.578;2024-03-23T16:21:04;11.10;50.50
31677;DHT22;18385;51.572;6.578;2024-03-23T16:23:32;10.50;51.50
31677;DHT22;18385;51.572;6.578;2024-03-23T16:25:58;10.10;52.00
31677;DHT22;18385;51.572;6.578;2024-03-23T16:28:32;9.70;52.90
31677;DHT22;18385;51.572;6.578;2024-03-23T16:31:05;9.50;53.40
31677;DHT22;18385;51.572;6.578;2024-03-23T16:33:38;9.30;53.60
31677;DHT22;18385;51.572;6.578;2024-03-23T16:36:04;9.20;54.10
31677;DHT22;18385;51.572;6.578;2024-03-23T16:38:31;9.10;54.30